Nicktown, Pennsylvania
Current Conditions -  °F | °C
As of 2:35 PM on Thursday 27 Nov 2014 (Local Time) from KIDI Reporting Station
Overcast Overcast  
Wind Chill: 27°   Ceiling: 1300
Heat Index: 32°   Visibility: 10mi
Dew Point: 30°   Wind: 5mph
Humidity: 93%   Direction: 340°NNW
Pressure: 30.07"   Gusts: NA
Location:  40.61°N, 78.8°W
Report Text: KIDI 271935Z AUTO 34004KT 10SM OVC013 00/M01 A3007 RMK A01
Loading
Personal Weather Stations






























Interactive Weather Map New forecast layout! Learn more

10-Day Weather Forecast

Advertisements
Track Severe Weather on mobile